EGBJ/GLO METAR and TAF weather

Enter ICAO airport designator
Station Type Date Time Source
EGBJ METAR 2020/09/20 14:50 UTC NOAA

EGBJ 201450Z 02008KT CAVOK 21/12 Q1019


Station Type Date Time Source
EGBJ Decoded METAR 2020/09/20 14:50 UTC NOAA

Staverton Private , United Kingdom (EGBJ) 51-54N 002-10W
Sep 20, 2020 - 10:50 AM EDT / 2020.09.20 1450 UTC
Wind: from the NNE (020 degrees) at 9 MPH (8 KT):0
Visibility: greater than 7 mile(s):0
Temperature: 69 F (21 C)
Dew Point: 53 F (12 C)
Relative Humidity: 56%
Pressure (altimeter): 30.09 in. Hg (1019 hPa)
ob: EGBJ 201450Z 02008KT CAVOK 21/12 Q1019
cycle: 15

Station Type Date Time Source
EGBJ TAF UTC NOAA

Error!

Example: see airport list